Time;durP1;ratioP1;P1;durP2;ratioP2;P2;SDS_P1;SDS_P2;PMS_P1;PMS_P2;Temp;Humidity;BMP_temperature;BMP_pressure;BME280_temperature;BME280_humidity;BME280_pressure;Samples;Min_cycle;Max_cycle;Signal;HPM_P1;HPM_P2
2023/10/30 00:00:08;;;;;;;6.32;1.25;;;;;;;9.34;100.00;99700.66;1026673;28;20294;-55
2023/10/30 00:00:40;;;;;;;4.80;0.95;;;;;;;9.21;100.00;99703.56;1027632;28;20836;-55
2023/10/30 00:01:12;;;;;;;5.25;0.63;;;;;;;9.13;100.00;99709.25;1031195;28;20547;-55
2023/10/30 00:01:45;;;;;;;13.20;1.95;;;;;;;9.05;100.00;99712.28;1031230;28;20344;-55
2023/10/30 00:02:16;;;;;;;3.95;0.73;;;;;;;8.94;100.00;99706.75;1030702;28;20408;-53
2023/10/30 00:02:48;;;;;;;5.90;1.05;;;;;;;8.88;100.00;99702.38;1031385;28;20308;-52
2023/10/30 00:03:20;;;;;;;8.70;1.25;;;;;;;9.02;100.00;99712.72;1032702;28;20443;-55
2023/10/30 00:03:52;;;;;;;4.95;0.93;;;;;;;8.89;100.00;99703.19;1032347;28;20336;-53
2023/10/30 00:04:33;;;;;;;6.15;1.05;;;;;;;8.88;100.00;99706.88;1031566;28;20301;-51
2023/10/30 00:05:06;;;;;;;7.30;1.25;;;;;;;8.91;100.00;99706.41;1030870;28;20601;-52
2023/10/30 00:05:38;;;;;;;6.78;1.38;;;;;;;9.02;100.00;99705.56;1031089;28;20308;-52
2023/10/30 00:06:09;;;;;;;2.60;0.70;;;;;;;8.90;100.00;99704.78;1031351;28;20297;-52
2023/10/30 00:06:41;;;;;;;8.30;0.88;;;;;;;8.96;100.00;99704.66;1031225;28;20378;-52
2023/10/30 00:07:12;;;;;;;4.53;1.30;;;;;;;9.08;100.00;99712.63;1030747;28;20309;-54
2023/10/30 00:07:44;;;;;;;6.25;1.20;;;;;;;9.11;100.00;99706.03;1031335;28;20316;-54
2023/10/30 00:08:16;;;;;;;2.30;1.02;;;;;;;9.07;100.00;99711.00;1031170;28;20305;-55
2023/10/30 00:08:48;;;;;;;5.82;1.10;;;;;;;9.05;100.00;99709.63;1030955;28;20315;-55
2023/10/30 00:09:20;;;;;;;5.82;1.10;;;;;;;8.99;100.00;99704.19;1031109;28;20312;-55
2023/10/30 00:09:51;;;;;;;4.57;1.20;;;;;;;9.05;100.00;99709.63;1031067;28;20455;-52
2023/10/30 00:10:23;;;;;;;7.35;1.00;;;;;;;9.07;100.00;99715.53;1031247;28;20305;-52
2023/10/30 00:10:54;;;;;;;4.07;0.90;;;;;;;8.97;100.00;99706.28;1031119;28;20312;-55
2023/10/30 00:11:28;;;;;;;7.78;0.95;;;;;;;8.97;100.00;99703.63;1028171;28;20305;-54
2023/10/30 00:12:01;;;;;;;3.25;0.98;;;;;;;9.02;100.00;99712.72;1026409;28;20302;-54
2023/10/30 00:12:32;;;;;;;3.75;1.60;;;;;;;9.07;100.00;99705.69;1026959;28;20298;-52
2023/10/30 00:13:04;;;;;;;4.07;0.88;;;;;;;9.06;100.00;99711.25;1027511;28;20332;-52
2023/10/30 00:13:36;;;;;;;5.43;1.00;;;;;;;9.05;100.00;99712.28;1031077;28;20298;-53
2023/10/30 00:14:08;;;;;;;5.50;2.45;;;;;;;9.12;100.00;99710.31;1032011;28;20768;-53
2023/10/30 00:14:39;;;;;;;3.33;0.85;;;;;;;9.07;100.00;99705.69;1031783;28;20312;-52
2023/10/30 00:15:11;;;;;;;2.65;0.93;;;;;;;8.88;100.00;99713.00;1031855;28;20297;-52
2023/10/30 00:15:43;;;;;;;3.47;0.80;;;;;;;8.86;100.00;99708.97;1031750;28;20799;-52
2023/10/30 00:16:15;;;;;;;1.85;1.00;;;;;;;8.90;100.00;99710.91;1031876;28;20312;-53
2023/10/30 00:16:47;;;;;;;4.13;1.42;;;;;;;8.93;100.00;99705.13;1031488;28;20795;-53
2023/10/30 00:17:19;;;;;;;4.20;0.98;;;;;;;8.91;100.00;99707.22;1032006;28;20324;-52
2023/10/30 00:17:50;;;;;;;6.60;1.38;;;;;;;8.76;100.00;99706.88;1031657;28;20672;-53
2023/10/30 00:18:22;;;;;;;5.90;0.80;;;;;;;8.77;100.00;99705.84;1031769;28;20292;-52
2023/10/30 00:18:55;;;;;;;3.60;1.30;;;;;;;8.85;100.00;99702.84;1031687;28;20317;-55
2023/10/30 00:19:26;;;;;;;3.05;0.60;;;;;;;8.90;100.00;99705.59;1031659;28;20297;-54
2023/10/30 00:19:59;;;;;;;4.20;1.10;;;;;;;8.94;100.00;99701.44;1031798;28;20300;-55
2023/10/30 00:20:30;;;;;;;5.05;0.95;;;;;;;8.80;100.00;99700.06;1031753;28;20301;-52
2023/10/30 00:21:02;;;;;;;3.83;0.80;;;;;;;8.82;100.00;99703.31;1031947;28;20301;-55
2023/10/30 00:21:34;;;;;;;6.28;1.13;;;;;;;8.77;100.00;99705.03;1031578;28;20684;-55
2023/10/30 00:22:10;;;;;;;8.48;1.00;;;;;;;8.95;100.00;99703.03;1031790;28;20297;-54
2023/10/30 00:22:43;;;;;;;4.13;1.80;;;;;;;8.85;100.00;99708.16;1031934;28;20306;-55
2023/10/30 00:23:14;;;;;;;8.18;1.38;;;;;;;8.83;100.00;99706.78;1031649;28;20309;-53
2023/10/30 00:23:46;;;;;;;6.47;1.48;;;;;;;8.89;100.00;99708.50;1032084;28;21255;-53
2023/10/30 00:24:18;;;;;;;9.30;1.38;;;;;;;9.00;100.00;99710.31;1031756;28;21007;-52
2023/10/30 00:24:50;;;;;;;4.05;1.45;;;;;;;8.98;100.00;99707.88;1031580;28;20765;-53
2023/10/30 00:25:22;;;;;;;4.38;0.95;;;;;;;9.10;100.00;99705.22;1031961;28;20293;-51
2023/10/30 00:25:55;;;;;;;6.28;1.63;;;;;;;9.09;100.00;99705.47;1031707;28;20308;-52
2023/10/30 00:26:26;;;;;;;6.93;0.98;;;;;;;9.12;100.00;99707.66;1031579;28;20518;-54
2023/10/30 00:26:58;;;;;;;9.05;2.90;;;;;;;9.03;100.00;99711.69;1031496;28;20296;-55
2023/10/30 00:27:30;;;;;;;9.02;0.95;;;;;;;9.01;100.00;99716.44;1027661;28;20306;-55
2023/10/30 00:28:02;;;;;;;5.28;1.40;;;;;;;9.05;100.00;99707.78;1027824;28;20788;-52
2023/10/30 00:28:36;;;;;;;3.97;1.35;;;;;;;9.07;100.00;99704.91;1028436;28;20804;-55
2023/10/30 00:29:07;;;;;;;4.72;1.30;;;;;;;9.19;100.00;99718.94;1028250;28;20372;-53
2023/10/30 00:29:40;;;;;;;5.43;2.40;;;;;;;9.17;100.00;99721.84;1027351;28;20393;-53
2023/10/30 00:30:13;;;;;;;3.58;1.30;;;;;;;9.16;100.00;99724.72;1023541;29;20355;-52
2023/10/30 00:30:45;;;;;;;3.45;0.95;;;;;;;9.11;100.00;99727.28;1020181;29;20295;-55
2023/10/30 00:31:16;;;;;;;7.10;1.17;;;;;;;9.10;100.00;99720.34;1016362;29;20308;-51
2023/10/30 00:31:48;;;;;;;5.28;1.27;;;;;;;9.14;100.00;99726.81;1021341;29;20338;-55
2023/10/30 00:32:20;;;;;;;3.95;1.02;;;;;;;9.13;100.00;99725.19;1023769;28;20398;-56
2023/10/30 00:32:51;;;;;;;3.58;0.90;;;;;;;8.99;100.00;99725.44;1027947;28;20332;-55
2023/10/30 00:33:23;;;;;;;5.30;1.42;;;;;;;9.07;100.00;99718.97;1031731;28;20312;-55
2023/10/30 00:33:55;;;;;;;5.07;1.52;;;;;;;9.11;100.00;99727.28;1029938;28;20278;-56
2023/10/30 00:34:26;;;;;;;3.15;1.13;;;;;;;9.08;100.00;99733.06;1031510;28;20308;-55
2023/10/30 00:34:58;;;;;;;3.03;0.88;;;;;;;9.08;100.00;99725.91;1031645;28;20795;-55
2023/10/30 00:35:30;;;;;;;3.78;0.85;;;;;;;8.96;100.00;99735.72;1031945;28;20296;-55
2023/10/30 00:36:01;;;;;;;3.47;0.90;;;;;;;9.07;100.00;99720.84;1031663;28;20672;-54
2023/10/30 00:36:33;;;;;;;4.40;1.45;;;;;;;9.07;100.00;99726.16;1031899;28;20660;-55
2023/10/30 00:37:04;;;;;;;7.25;1.52;;;;;;;9.09;100.00;99724.06;1031807;28;20309;-55
2023/10/30 00:37:36;;;;;;;2.67;1.27;;;;;;;9.02;100.00;99724.16;1035312;28;20316;-55
2023/10/30 00:38:08;;;;;;;3.90;1.35;;;;;;;9.04;100.00;99724.75;1035454;28;20289;-55
2023/10/30 00:38:39;;;;;;;7.97;2.13;;;;;;;9.08;100.00;99723.25;1035548;28;20305;-55
2023/10/30 00:39:11;;;;;;;6.65;1.23;;;;;;;9.05;100.00;99730.88;1035261;28;20664;-55
2023/10/30 00:39:43;;;;;;;8.13;1.92;;;;;;;9.12;100.00;99731.56;1026983;28;20784;-55
2023/10/30 00:40:15;;;;;;;9.23;2.13;;;;;;;9.07;100.00;99736.78;1027517;28;20298;-55
2023/10/30 00:40:47;;;;;;;5.38;0.90;;;;;;;9.06;100.00;99732.50;1028377;28;20754;-53
2023/10/30 00:41:18;;;;;;;4.25;1.27;;;;;;;9.03;100.00;99735.59;1028431;28;20306;-54
2023/10/30 00:41:50;;;;;;;4.05;0.95;;;;;;;9.03;100.00;99735.59;1035532;28;20519;-55
2023/10/30 00:42:25;;;;;;;10.05;2.45;;;;;;;9.08;100.00;99735.72;1035287;28;20296;-54
2023/10/30 00:42:57;;;;;;;5.60;1.17;;;;;;;9.06;100.00;99729.84;1035752;28;20308;-55
2023/10/30 00:43:28;;;;;;;3.40;1.40;;;;;;;9.02;100.00;99728.66;1034737;28;20304;-55
2023/10/30 00:44:00;;;;;;;7.00;1.40;;;;;;;9.11;100.00;99727.28;1031211;28;20305;-54
2023/10/30 00:44:32;;;;;;;4.20;1.55;;;;;;;9.05;100.00;99730.88;1035423;28;20483;-55
2023/10/30 00:45:04;;;;;;;8.07;2.08;;;;;;;8.98;100.00;99729.13;1035673;28;20296;-55
2023/10/30 00:45:36;;;;;;;4.32;1.33;;;;;;;9.15;100.00;99731.09;1035373;28;20310;-55
2023/10/30 00:46:07;;;;;;;8.23;2.05;;;;;;;9.12;100.00;99731.56;1035074;28;20312;-54
2023/10/30 00:46:39;;;;;;;5.43;2.53;;;;;;;9.12;100.00;99729.72;1031927;28;20309;-55
2023/10/30 00:47:11;;;;;;;5.15;1.35;;;;;;;9.10;100.00;99730.97;1031820;28;20818;-55
2023/10/30 00:47:42;;;;;;;13.18;1.77;;;;;;;9.08;100.00;99725.09;1031709;28;20301;-55
2023/10/30 00:48:14;;;;;;;6.05;1.08;;;;;;;9.11;100.00;99729.94;1031911;28;20289;-55
2023/10/30 00:48:45;;;;;;;11.93;1.10;;;;;;;9.14;100.00;99726.81;1031157;28;20781;-55
2023/10/30 00:49:17;;;;;;;4.43;1.45;;;;;;;9.18;100.00;99727.97;1031493;28;20316;-51
2023/10/30 00:49:49;;;;;;;7.72;1.33;;;;;;;9.16;100.00;99727.38;1031391;28;20293;-53
2023/10/30 00:50:20;;;;;;;4.95;1.10;;;;;;;9.20;100.00;99725.88;1031683;28;20301;-53
2023/10/30 00:50:52;;;;;;;3.70;0.90;;;;;;;9.13;100.00;99723.34;1031951;28;20300;-53
2023/10/30 00:51:23;;;;;;;6.00;1.00;;;;;;;9.09;100.00;99730.19;1032108;28;20663;-53
2023/10/30 00:51:55;;;;;;;4.82;1.23;;;;;;;8.99;100.00;99725.44;1031358;28;20629;-52
2023/10/30 00:52:27;;;;;;;6.00;2.08;;;;;;;9.06;100.00;99725.34;1031417;28;20297;-53
2023/10/30 00:52:58;;;;;;;9.15;1.27;;;;;;;8.95;100.00;99729.59;1031977;28;20301;-53
2023/10/30 00:53:30;;;;;;;7.30;1.08;;;;;;;8.95;100.00;99736.75;1031352;28;20670;-52
2023/10/30 00:54:02;;;;;;;6.68;1.15;;;;;;;8.76;100.00;99730.75;1031943;28;20305;-53
2023/10/30 00:54:33;;;;;;;1.77;0.90;;;;;;;8.85;100.00;99732.03;1031829;28;20302;-53
2023/10/30 00:55:05;;;;;;;6.80;1.75;;;;;;;8.85;100.00;99742.66;1031233;28;20356;-53
2023/10/30 00:55:40;;;;;;;3.75;1.20;;;;;;;9.08;100.00;99733.06;1031243;28;20289;-52
2023/10/30 00:56:12;;;;;;;7.93;1.50;;;;;;;9.10;100.00;99737.09;1027358;28;20752;-52
2023/10/30 00:56:44;;;;;;;7.35;1.33;;;;;;;9.04;100.00;99739.88;1027445;28;20294;-52
2023/10/30 00:57:16;;;;;;;2.05;0.75;;;;;;;9.04;100.00;99745.19;1027322;28;20302;-52
2023/10/30 00:57:47;;;;;;;4.38;1.20;;;;;;;9.13;100.00;99741.13;1027804;28;20329;-51
2023/10/30 00:58:19;;;;;;;6.55;1.20;;;;;;;9.07;100.00;99747.41;1026947;28;20297;-52
2023/10/30 00:58:51;;;;;;;12.68;1.80;;;;;;;9.09;100.00;99745.31;1027327;28;20433;-52
2023/10/30 00:59:23;;;;;;;4.47;1.75;;;;;;;9.15;100.00;99741.72;1027077;28;20317;-52
2023/10/30 00:59:54;;;;;;;9.15;1.40;;;;;;;9.14;100.00;99748.06;1027416;28;20309;-52
2023/10/30 01:00:26;;;;;;;3.22;0.80;;;;;;;9.11;100.00;99744.03;1036398;28;20304;-55
2023/10/30 01:00:58;;;;;;;8.73;1.42;;;;;;;9.21;100.00;99744.25;1034093;28;20819;-55
2023/10/30 01:01:29;;;;;;;8.60;1.48;;;;;;;9.18;100.00;99738.59;1027014;28;20346;-54
2023/10/30 01:02:01;;;;;;;8.48;1.17;;;;;;;9.23;100.00;99741.34;1026818;28;20720;-55
2023/10/30 01:02:33;;;;;;;8.88;1.23;;;;;;;9.17;100.00;99744.94;1023857;28;20303;-52
2023/10/30 01:03:06;;;;;;;6.05;0.90;;;;;;;8.82;100.00;99751.09;1031724;28;20317;-50
2023/10/30 01:03:38;;;;;;;2.33;0.93;;;;;;;9.01;100.00;99743.00;1035518;28;20423;-53
2023/10/30 01:04:10;;;;;;;12.18;1.67;;;;;;;8.99;100.00;99741.38;1035235;28;20312;-52
2023/10/30 01:04:42;;;;;;;7.07;1.50;;;;;;;9.01;100.00;99748.31;1030625;28;20391;-52
2023/10/30 01:05:15;;;;;;;4.45;1.08;;;;;;;9.05;100.00;99744.16;1027395;28;21057;-53
2023/10/30 01:05:55;;;;;;;5.18;0.75;;;;;;;9.07;100.00;99748.19;1027246;28;20297;-52
2023/10/30 01:06:27;;;;;;;2.38;0.80;;;;;;;9.13;100.00;99746.44;1028380;28;20646;-50
2023/10/30 01:06:58;;;;;;;3.90;1.98;;;;;;;8.96;100.00;99751.66;1030024;28;20671;-52
2023/10/30 01:07:30;;;;;;;10.48;1.55;;;;;;;9.19;100.00;99751.63;1028418;28;20820;-52
2023/10/30 01:08:08;;;;;;;5.38;1.42;;;;;;;9.17;100.00;99758.22;1031493;28;20301;-51
2023/10/30 01:08:40;;;;;;;5.82;2.08;;;;;;;9.20;100.00;99752.44;1031546;28;20301;-53
2023/10/30 01:09:12;;;;;;;9.32;1.10;;;;;;;9.19;100.00;99754.28;1029944;28;20645;-53
2023/10/30 01:09:43;;;;;;;4.60;1.73;;;;;;;9.18;100.00;99762.50;1027733;28;20298;-53
2023/10/30 01:10:15;;;;;;;3.63;1.20;;;;;;;9.17;100.00;99758.22;1031656;28;20408;-55
2023/10/30 01:10:46;;;;;;;9.15;1.55;;;;;;;9.20;100.00;99753.25;1031552;28;20301;-55
2023/10/30 01:11:18;;;;;;;2.40;0.93;;;;;;;9.23;100.00;99751.97;1031428;28;20298;-55
2023/10/30 01:11:50;;;;;;;4.60;1.48;;;;;;;9.25;100.00;99765.84;1031138;28;20302;-54
2023/10/30 01:12:21;;;;;;;4.70;0.90;;;;;;;9.15;100.00;99765.63;1035134;28;20379;-55
2023/10/30 01:12:53;;;;;;;8.20;1.13;;;;;;;9.18;100.00;99759.84;1035358;28;20351;-56
2023/10/30 01:13:25;;;;;;;9.38;1.75;;;;;;;9.21;100.00;99764.69;1035090;28;20347;-54
2023/10/30 01:13:57;;;;;;;4.90;1.40;;;;;;;9.25;100.00;99769.28;1034941;28;20303;-55
2023/10/30 01:14:28;;;;;;;3.55;1.42;;;;;;;9.32;100.00;99766.53;1031471;28;20380;-54
2023/10/30 01:15:00;;;;;;;3.95;1.13;;;;;;;9.34;100.00;99761.78;1035303;28;20305;-52
2023/10/30 01:15:32;;;;;;;7.57;1.10;;;;;;;9.34;100.00;99756.47;1034088;28;20304;-52
2023/10/30 01:16:05;;;;;;;9.30;1.42;;;;;;;9.25;100.00;99765.84;1035369;28;20323;-53
2023/10/30 01:16:37;;;;;;;7.25;1.35;;;;;;;9.37;100.00;99763.97;1034778;28;20311;-53
2023/10/30 01:17:09;;;;;;;5.97;1.17;;;;;;;9.39;100.00;99761.09;1030975;28;20297;-52
2023/10/30 01:17:41;;;;;;;10.10;1.80;;;;;;;9.35;100.00;99767.91;1032259;28;20377;-53
2023/10/30 01:18:16;;;;;;;3.78;1.17;;;;;;;9.34;100.00;99764.44;1031667;28;20305;-52
2023/10/30 01:18:48;;;;;;;11.82;2.28;;;;;;;9.32;100.00;99777.16;1031483;28;20312;-53
2023/10/30 01:19:20;;;;;;;3.35;1.08;;;;;;;9.35;100.00;99770.56;1031173;28;20308;-51
2023/10/30 01:19:52;;;;;;;5.78;2.17;;;;;;;9.30;100.00;99768.59;1031428;28;20418;-53
2023/10/30 01:20:24;;;;;;;9.30;1.65;;;;;;;9.24;100.00;99769.53;1031333;28;20798;-53
2023/10/30 01:20:55;;;;;;;7.13;1.15;;;;;;;9.08;100.00;99767.59;1026992;28;20671;-55
2023/10/30 01:21:27;;;;;;;7.15;1.38;;;;;;;9.15;100.00;99765.63;1023369;29;20305;-55
2023/10/30 01:21:59;;;;;;;7.03;1.10;;;;;;;9.19;100.00;99772.09;1023248;29;20294;-54
2023/10/30 01:22:30;;;;;;;9.70;1.50;;;;;;;9.13;100.00;99762.41;1023513;28;20326;-55
2023/10/30 01:23:02;;;;;;;4.07;1.08;;;;;;;9.30;100.00;99768.59;1027807;28;20297;-53
2023/10/30 01:23:34;;;;;;;1.88;1.17;;;;;;;9.20;100.00;99768.38;1031417;28;20293;-52
2023/10/30 01:24:06;;;;;;;7.07;1.85;;;;;;;9.25;100.00;99777.25;1030569;28;20665;-51
2023/10/30 01:24:38;;;;;;;23.17;4.90;;;;;;;9.28;100.00;99768.81;1031315;28;20301;-53
2023/10/30 01:25:11;;;;;;;6.57;1.65;;;;;;;9.36;100.00;99773.00;1030699;28;20305;-52
2023/10/30 01:25:46;;;;;;;8.73;1.35;;;;;;;9.41;100.00;99770.44;1031005;28;20301;-52
2023/10/30 01:26:18;;;;;;;10.65;1.10;;;;;;;9.48;100.00;99772.94;1031478;28;20857;-53
2023/10/30 01:26:50;;;;;;;7.82;1.90;;;;;;;9.49;100.00;99763.94;1027019;28;20312;-52
2023/10/30 01:27:22;;;;;;;4.47;1.20;;;;;;;9.57;100.00;99780.31;1027220;28;20309;-53
2023/10/30 01:27:53;;;;;;;4.43;1.25;;;;;;;9.55;100.00;99776.28;1027318;28;20380;-55
2023/10/30 01:28:25;;;;;;;4.78;1.20;;;;;;;9.63;100.00;99772.47;1027552;28;20312;-55
2023/10/30 01:28:56;;;;;;;3.60;0.75;;;;;;;9.66;100.00;99772.00;1031523;28;20893;-55
2023/10/30 01:29:29;;;;;;;4.75;1.15;;;;;;;9.64;100.00;99776.75;1031613;28;20301;-55
2023/10/30 01:30:00;;;;;;;13.88;2.85;;;;;;;9.59;100.00;99774.78;1031318;28;20315;-54
2023/10/30 01:30:33;;;;;;;8.05;1.98;;;;;;;9.62;100.00;99776.97;1027237;28;20302;-55
2023/10/30 01:31:05;;;;;;;10.32;1.17;;;;;;;9.62;100.00;99773.50;1023270;29;20693;-55
2023/10/30 01:31:37;;;;;;;7.70;1.27;;;;;;;9.61;100.00;99775.34;1023029;29;20326;-53
2023/10/30 01:32:08;;;;;;;9.07;1.65;;;;;;;9.61;100.00;99764.72;1023492;28;20306;-55
2023/10/30 01:32:41;;;;;;;9.73;1.40;;;;;;;9.70;100.00;99775.78;1027614;28;20725;-55
2023/10/30 01:33:12;;;;;;;9.80;1.85;;;;;;;9.78;100.00;99770.09;1026666;28;20906;-55
2023/10/30 01:33:44;;;;;;;5.45;1.45;;;;;;;9.81;100.00;99777.59;1027243;28;20332;-52
2023/10/30 01:34:16;;;;;;;8.63;1.95;;;;;;;9.74;100.00;99774.28;1027326;28;20800;-52
2023/10/30 01:34:49;;;;;;;7.25;2.33;;;;;;;9.80;100.00;99779.44;1027553;28;20298;-52
2023/10/30 01:35:21;;;;;;;7.45;1.63;;;;;;;9.78;100.00;99783.38;1031537;28;20298;-50
2023/10/30 01:35:52;;;;;;;3.40;1.25;;;;;;;9.81;100.00;99775.72;1031599;28;20293;-53
2023/10/30 01:36:24;;;;;;;9.02;1.30;;;;;;;9.77;100.00;99779.91;1031173;28;20301;-53
2023/10/30 01:36:57;;;;;;;10.43;1.45;;;;;;;9.80;100.00;99778.63;1031854;28;20297;-50
2023/10/30 01:37:28;;;;;;;5.65;2.83;;;;;;;9.77;100.00;99782.56;1031616;28;20408;-52
2023/10/30 01:38:00;;;;;;;9.18;1.85;;;;;;;9.84;100.00;99780.56;1031436;28;20930;-53
2023/10/30 01:38:32;;;;;;;5.60;2.58;;;;;;;9.90;100.00;99778.84;1031497;28;20759;-53
2023/10/30 01:39:03;;;;;;;13.20;1.25;;;;;;;9.87;100.00;99779.31;1032126;28;20640;-55
2023/10/30 01:39:36;;;;;;;8.55;1.13;;;;;;;9.88;100.00;99772.97;1031727;28;20304;-55
2023/10/30 01:40:11;;;;;;;7.60;1.40;;;;;;;9.92;100.00;99771.44;1027255;28;20310;-55
2023/10/30 01:40:50;;;;;;;4.07;1.20;;;;;;;9.89;100.00;99777.22;1027334;28;20782;-51
2023/10/30 01:41:23;;;;;;;5.82;1.30;;;;;;;9.93;100.00;99765.06;1026959;28;20349;-53
2023/10/30 01:41:55;;;;;;;7.90;1.00;;;;;;;9.88;100.00;99775.63;1029168;28;20360;-53
2023/10/30 01:42:26;;;;;;;15.13;1.40;;;;;;;9.92;100.00;99776.75;1030745;28;20659;-50
2023/10/30 01:43:00;;;;;;;9.63;1.52;;;;;;;9.89;100.00;99775.38;1027246;28;20835;-52
2023/10/30 01:43:32;;;;;;;7.10;1.45;;;;;;;9.86;100.00;99775.03;1027383;28;20433;-55
2023/10/30 01:44:04;;;;;;;14.95;1.60;;;;;;;9.86;100.00;99780.34;1031223;28;20380;-53
2023/10/30 01:44:52;;;;;;;9.52;2.17;;;;;;;9.94;100.00;99779.97;1031799;28;20656;-52
2023/10/30 01:45:25;;;;;;;5.03;1.55;;;;;;;9.93;100.00;99778.38;1034891;28;20822;-52
2023/10/30 01:45:57;;;;;;;7.47;2.28;;;;;;;9.99;100.00;99782.72;1031736;28;20427;-53
2023/10/30 01:46:29;;;;;;;6.82;1.40;;;;;;;10.00;100.00;99775.56;1036804;28;20332;-54
2023/10/30 01:47:02;;;;;;;6.55;1.83;;;;;;;9.93;100.00;99785.53;1036299;28;20691;-55
2023/10/30 01:47:42;;;;;;;8.95;2.10;;;;;;;9.94;100.00;99787.97;1032798;28;20321;-54
2023/10/30 01:48:14;;;;;;;7.30;1.63;;;;;;;9.94;100.00;99782.63;1033171;28;20096;-54
2023/10/30 01:48:48;;;;;;;8.70;2.25;;;;;;;10.00;100.00;99786.19;1023462;29;20306;-52
2023/10/30 01:49:21;;;;;;;7.38;1.25;;;;;;;9.96;100.00;99793.03;1020964;29;20295;-52
2023/10/30 01:49:53;;;;;;;6.13;1.67;;;;;;;10.00;100.00;99783.53;1023167;29;20336;-53
2023/10/30 01:50:25;;;;;;;6.32;1.73;;;;;;;10.07;100.00;99789.50;1024517;28;20363;-52
2023/10/30 01:50:58;;;;;;;4.82;1.63;;;;;;;10.06;100.00;99793.22;1027553;28;20317;-52
2023/10/30 01:51:30;;;;;;;11.45;1.33;;;;;;;10.03;100.00;99789.19;1026323;28;20301;-51
2023/10/30 01:52:01;;;;;;;10.05;1.55;;;;;;;10.03;100.00;99780.41;1019895;29;20380;-52
2023/10/30 01:52:34;;;;;;;9.57;2.15;;;;;;;10.05;100.00;99787.09;1021222;29;20810;-55
2023/10/30 01:53:06;;;;;;;7.00;1.13;;;;;;;10.11;100.00;99785.31;1024297;28;20299;-52
2023/10/30 01:53:38;;;;;;;6.55;1.25;;;;;;;10.15;100.00;99779.31;1027122;28;20298;-52
2023/10/30 01:54:10;;;;;;;8.38;2.42;;;;;;;10.10;100.00;99787.19;1030290;28;20812;-52
2023/10/30 01:54:43;;;;;;;6.18;1.58;;;;;;;10.13;100.00;99778.72;1030358;28;20380;-51
2023/10/30 01:55:15;;;;;;;6.32;2.38;;;;;;;10.17;100.00;99784.38;1027551;28;20306;-54
2023/10/30 01:55:47;;;;;;;3.50;1.13;;;;;;;10.19;100.00;99787.63;1024906;29;20298;-54
2023/10/30 01:56:19;;;;;;;7.03;1.38;;;;;;;10.14;100.00;99780.34;1022994;29;20314;-52
2023/10/30 01:56:51;;;;;;;11.20;1.85;;;;;;;10.15;100.00;99787.28;1023798;28;20863;-52
2023/10/30 01:57:24;;;;;;;6.63;2.10;;;;;;;9.96;100.00;99785.88;1027803;28;20449;-55
2023/10/30 01:57:56;;;;;;;11.40;1.38;;;;;;;9.98;100.00;99789.09;1031207;28;20417;-55
2023/10/30 01:58:28;;;;;;;24.55;4.80;;;;;;;10.05;100.00;99786.28;1031069;28;20324;-55
2023/10/30 01:59:00;;;;;;;7.03;1.08;;;;;;;10.02;100.00;99786.75;1031088;28;20359;-52
2023/10/30 01:59:33;;;;;;;11.20;1.35;;;;;;;10.09;100.00;99782.91;1031220;28;20499;-52
2023/10/30 02:00:06;;;;;;;6.40;1.58;;;;;;;10.03;100.00;99789.19;1031842;28;20297;-53
2023/10/30 02:00:47;;;;;;;8.60;1.05;;;;;;;10.08;100.00;99791.94;1031775;28;20309;-55
2023/10/30 02:01:20;;;;;;;8.98;1.65;;;;;;;10.05;100.00;99792.41;1026865;28;20309;-52
2023/10/30 02:01:52;;;;;;;7.88;2.22;;;;;;;10.07;100.00;99781.53;1022798;29;20333;-53
2023/10/30 02:02:29;;;;;;;5.85;1.17;;;;;;;10.08;100.00;99786.59;1026931;28;20329;-53
2023/10/30 02:03:01;;;;;;;4.75;1.38;;;;;;;10.07;100.00;99787.66;1028643;28;20338;-52
2023/10/30 02:03:33;;;;;;;6.15;1.77;;;;;;;10.13;100.00;99788.56;1032467;28;20759;-52
2023/10/30 02:04:06;;;;;;;5.40;1.05;;;;;;;9.98;100.00;99794.41;1030414;28;20305;-54
2023/10/30 02:04:37;;;;;;;8.82;2.38;;;;;;;9.96;100.00;99788.53;1027210;28;20336;-55
2023/10/30 02:05:09;;;;;;;8.45;1.20;;;;;;;10.06;100.00;99788.72;1023335;29;20389;-55
2023/10/30 02:05:41;;;;;;;10.55;1.98;;;;;;;10.07;100.00;99779.69;1024138;28;20440;-55
2023/10/30 02:06:13;;;;;;;4.20;1.17;;;;;;;10.08;100.00;99791.94;1027109;28;20341;-54
2023/10/30 02:06:44;;;;;;;5.47;1.60;;;;;;;10.07;100.00;99784.19;1023477;28;20446;-55
2023/10/30 02:07:16;;;;;;;6.10;2.00;;;;;;;10.06;100.00;99782.56;1027236;28;20645;-55
2023/10/30 02:07:51;;;;;;;10.30;1.35;;;;;;;9.99;100.00;99788.03;1027298;28;20298;-52
2023/10/30 02:08:23;;;;;;;2.78;1.00;;;;;;;10.07;100.00;99784.19;1028045;28;20304;-53
2023/10/30 02:08:55;;;;;;;7.32;1.10;;;;;;;10.00;100.00;99789.66;1031570;28;20707;-55
2023/10/30 02:09:27;;;;;;;7.32;1.48;;;;;;;10.06;100.00;99788.72;1029651;28;20302;-55
2023/10/30 02:09:59;;;;;;;9.48;2.00;;;;;;;10.13;100.00;99781.38;1024983;28;20307;-55
2023/10/30 02:10:31;;;;;;;9.27;1.85;;;;;;;10.10;100.00;99787.19;1023233;28;20329;-55
2023/10/30 02:11:03;;;;;;;6.55;0.82;;;;;;;10.04;100.00;99782.81;1027022;28;20310;-55
2023/10/30 02:11:35;;;;;;;8.77;2.35;;;;;;;10.09;100.00;99785.56;1026690;28;20605;-53
2023/10/30 02:12:07;;;;;;;9.95;1.35;;;;;;;10.11;100.00;99785.31;1031160;28;20691;-53
2023/10/30 02:12:41;;;;;;;7.00;1.35;;;;;;;10.15;100.00;99787.28;1031363;28;20301;-53
2023/10/30 02:13:13;;;;;;;8.68;1.98;;;;;;;10.18;100.00;99780.69;1031492;28;20304;-53
2023/10/30 02:13:54;;;;;;;10.93;1.48;;;;;;;10.16;100.00;99782.78;1031572;28;20301;-52
2023/10/30 02:14:25;;;;;;;5.00;1.55;;;;;;;10.16;100.00;99780.94;1030008;28;20333;-53
2023/10/30 02:14:57;;;;;;;10.02;1.58;;;;;;;10.15;100.00;99781.97;1030669;28;20531;-52
2023/10/30 02:15:29;;;;;;;14.07;1.65;;;;;;;10.16;100.00;99777.47;1031232;28;20675;-53
2023/10/30 02:16:00;;;;;;;5.40;1.05;;;;;;;10.12;100.00;99781.63;1031055;28;20312;-55
2023/10/30 02:16:32;;;;;;;7.93;1.33;;;;;;;10.08;100.00;99778.63;1031103;28;20656;-55
2023/10/30 02:17:04;;;;;;;8.18;2.95;;;;;;;10.12;100.00;99778.94;1031454;28;20285;-53
2023/10/30 02:17:36;;;;;;;10.60;1.63;;;;;;;10.03;100.00;99775.06;1031538;28;20416;-51
2023/10/30 02:18:07;;;;;;;8.23;1.58;;;;;;;10.02;100.00;99770.81;1031522;28;20372;-55
2023/10/30 02:18:39;;;;;;;8.40;2.13;;;;;;;10.07;100.00;99778.88;1031983;28;20347;-54
2023/10/30 02:19:19;;;;;;;3.90;0.68;;;;;;;10.11;100.00;99780.81;1027235;28;20313;-55
2023/10/30 02:19:50;;;;;;;7.78;1.42;;;;;;;10.07;100.00;99781.53;1022696;29;20315;-54
2023/10/30 02:20:22;;;;;;;7.78;1.42;;;;;;;10.05;100.00;99779.09;1022923;29;20313;-55
2023/10/30 02:20:54;;;;;;;6.07;2.50;;;;;;;10.03;100.00;99772.41;1024283;28;20313;-55
2023/10/30 02:21:25;;;;;;;12.82;2.42;;;;;;;10.09;100.00;99776.78;1028230;28;20314;-53
2023/10/30 02:21:57;;;;;;;16.52;1.85;;;;;;;10.06;100.00;99772.75;1031634;28;20305;-54
2023/10/30 02:22:29;;;;;;;10.07;1.35;;;;;;;10.08;100.00;99775.16;1031011;28;20305;-55
2023/10/30 02:23:01;;;;;;;10.98;1.52;;;;;;;10.09;100.00;99772.25;1026903;28;20305;-55
2023/10/30 02:23:33;;;;;;;9.68;2.63;;;;;;;9.96;100.00;99775.22;1028356;28;20310;-53
2023/10/30 02:24:06;;;;;;;5.35;1.48;;;;;;;9.96;100.00;99777.88;1031118;28;20316;-51
2023/10/30 02:24:38;;;;;;;5.28;1.38;;;;;;;9.97;100.00;99773.38;1031720;28;20313;-54
2023/10/30 02:25:12;;;;;;;8.50;1.58;;;;;;;9.97;100.00;99779.50;1035708;28;20304;-55
2023/10/30 02:25:44;;;;;;;4.18;1.20;;;;;;;10.00;100.00;99778.22;1034335;28;20323;-55
2023/10/30 02:26:15;;;;;;;10.93;1.73;;;;;;;10.00;100.00;99775.56;1031117;28;20589;-55
2023/10/30 02:26:48;;;;;;;6.43;1.15;;;;;;;10.00;100.00;99776.34;1027124;28;20839;-55
2023/10/30 02:27:19;;;;;;;4.72;1.25;;;;;;;10.04;100.00;99777.50;1027023;28;20400;-52
2023/10/30 02:27:52;;;;;;;9.60;2.30;;;;;;;10.06;100.00;99771.94;1027058;28;20306;-52
2023/10/30 02:28:24;;;;;;;8.95;1.50;;;;;;;10.06;100.00;99778.06;1027731;28;20318;-53
2023/10/30 02:29:01;;;;;;;8.00;2.08;;;;;;;9.98;100.00;99786.44;1031023;28;20289;-52
2023/10/30 02:29:32;;;;;;;11.38;1.35;;;;;;;10.08;100.00;99781.28;1026446;28;20396;-51
2023/10/30 02:30:05;;;;;;;5.75;0.95;;;;;;;10.17;100.00;99771.09;1027140;28;20811;-52
2023/10/30 02:30:37;;;;;;;5.03;0.98;;;;;;;10.16;100.00;99778.25;1027120;28;20349;-52
2023/10/30 02:31:08;;;;;;;4.57;1.67;;;;;;;10.08;100.00;99783.94;1027123;28;20302;-53